createdAt,value
2017-09-27T00:00:09.766Z,12.50
2017-09-27T00:02:37.294Z,13.03
2017-09-27T00:05:04.835Z,11.47
2017-09-27T00:07:32.377Z,12.23
2017-09-27T00:10:00.699Z,11.23
2017-09-27T00:12:28.218Z,9.63
2017-09-27T00:14:55.755Z,11.90
2017-09-27T00:17:23.270Z,10.80
2017-09-27T00:19:51.576Z,8.73
2017-09-27T00:22:19.095Z,10.90
2017-09-27T00:24:46.630Z,10.00
2017-09-27T00:27:14.153Z,11.00
2017-09-27T00:29:41.694Z,10.77
2017-09-27T00:32:09.227Z,13.47
2017-09-27T00:34:36.770Z,18.77
2017-09-27T00:37:04.290Z,12.90
2017-09-27T00:39:31.832Z,12.07
2017-09-27T00:42:00.111Z,10.10
2017-09-27T00:44:27.647Z,8.80
2017-09-27T00:46:55.178Z,10.20
2017-09-27T00:49:22.714Z,7.87
2017-09-27T00:51:50.234Z,13.93
2017-09-27T00:54:18.544Z,10.07
2017-09-27T00:56:46.058Z,9.70
2017-09-27T00:59:14.434Z,8.70
2017-09-27T01:01:41.956Z,9.63
2017-09-27T01:04:10.261Z,9.43
2017-09-27T01:06:37.774Z,7.77
2017-09-27T01:09:05.327Z,10.73
2017-09-27T01:11:32.849Z,8.63
2017-09-27T01:14:01.146Z,9.90
2017-09-27T01:16:29.428Z,9.90
2017-09-27T01:18:57.730Z,10.00
2017-09-27T01:21:25.256Z,12.70
2017-09-27T01:23:52.800Z,13.70
2017-09-27T01:26:20.332Z,13.07
2017-09-27T01:28:47.885Z,12.20
2017-09-27T01:31:15.414Z,11.10
2017-09-27T01:33:42.973Z,12.03
2017-09-27T01:36:10.507Z,15.40
2017-09-27T01:38:38.027Z,12.80
2017-09-27T01:41:05.579Z,16.60
2017-09-27T01:43:33.104Z,9.87
2017-09-27T01:46:00.646Z,10.73
2017-09-27T01:48:28.171Z,8.73
2017-09-27T01:50:55.703Z,6.30
2017-09-27T01:53:23.218Z,8.63
2017-09-27T01:55:50.766Z,9.80
2017-09-27T01:58:18.286Z,9.07
2017-09-27T02:00:45.823Z,10.07
2017-09-27T02:03:13.342Z,8.20
2017-09-27T02:05:40.883Z,7.70
2017-09-27T02:08:08.403Z,10.03
2017-09-27T02:10:35.939Z,9.27
2017-09-27T02:13:04.230Z,10.27
2017-09-27T02:15:31.775Z,11.63
2017-09-27T02:18:00.068Z,14.40
2017-09-27T02:20:28.383Z,11.43
2017-09-27T02:22:55.901Z,10.97
2017-09-27T02:25:23.456Z,13.17
2017-09-27T02:27:50.983Z,12.73
2017-09-27T02:30:18.531Z,11.93
2017-09-27T02:32:46.054Z,12.33
2017-09-27T02:35:13.664Z,17.13
2017-09-27T02:37:41.187Z,17.93
2017-09-27T02:40:08.727Z,15.50
2017-09-27T02:42:36.255Z,17.90
2017-09-27T02:45:03.803Z,14.30
2017-09-27T02:47:32.097Z,13.47
2017-09-27T02:49:59.643Z,17.63
2017-09-27T02:52:27.167Z,17.73
2017-09-27T02:54:54.719Z,16.77
2017-09-27T02:57:22.248Z,15.60
2017-09-27T02:59:49.807Z,15.60
2017-09-27T03:02:17.336Z,17.10
2017-09-27T03:04:44.890Z,15.33
2017-09-27T03:07:12.433Z,16.03
2017-09-27T03:09:39.975Z,16.10
2017-09-27T03:12:07.490Z,15.77
2017-09-27T03:14:35.031Z,18.67
2017-09-27T03:17:02.557Z,17.77
2017-09-27T03:19:30.882Z,17.30
2017-09-27T03:21:58.412Z,17.77
2017-09-27T03:24:25.958Z,16.13
2017-09-27T03:26:53.486Z,17.17
2017-09-27T03:29:21.791Z,18.80
2017-09-27T03:31:49.352Z,19.23
2017-09-27T03:34:16.908Z,17.77
2017-09-27T03:36:44.439Z,15.33
2017-09-27T03:39:11.983Z,13.77
2017-09-27T03:41:40.295Z,15.20
2017-09-27T03:44:07.820Z,22.60
2017-09-27T03:46:35.366Z,22.20
2017-09-27T03:49:02.895Z,18.77
2017-09-27T03:51:30.448Z,23.70
2017-09-27T03:53:57.984Z,16.77
2017-09-27T03:56:25.523Z,20.40
2017-09-27T03:58:53.104Z,27.43
2017-09-27T04:01:20.666Z,28.37
2017-09-27T04:03:48.196Z,21.70
2017-09-27T04:06:15.752Z,32.53
2017-09-27T04:08:43.282Z,41.37
2017-09-27T04:11:10.832Z,35.57
2017-09-27T04:13:38.361Z,35.50
2017-09-27T04:16:05.957Z,24.53
2017-09-27T04:18:33.483Z,25.20
2017-09-27T04:21:01.043Z,23.93
2017-09-27T04:23:29.335Z,23.97
2017-09-27T04:25:56.879Z,29.10
2017-09-27T04:28:25.169Z,27.83
2017-09-27T04:30:52.722Z,35.17
2017-09-27T04:33:20.238Z,28.03
2017-09-27T04:35:47.788Z,27.63
2017-09-27T04:38:16.107Z,35.60
2017-09-27T04:40:43.659Z,31.33
2017-09-27T04:43:11.953Z,30.67
2017-09-27T04:45:40.409Z,37.27
2017-09-27T04:48:07.939Z,40.70
2017-09-27T04:50:35.489Z,27.17
2017-09-27T04:53:03.015Z,29.87
2017-09-27T04:55:30.557Z,27.27
2017-09-27T04:57:58.083Z,36.83
2017-09-27T05:00:25.630Z,29.37
2017-09-27T05:02:53.153Z,33.10
2017-09-27T05:05:20.703Z,35.80
2017-09-27T05:07:48.317Z,34.93
2017-09-27T05:10:16.112Z,35.37
2017-09-27T05:12:43.633Z,35.93
2017-09-27T05:15:11.183Z,38.30
2017-09-27T05:17:39.474Z,41.53
2017-09-27T05:20:07.783Z,30.87
2017-09-27T05:22:35.308Z,36.30
2017-09-27T05:25:02.851Z,37.00
2017-09-27T05:27:31.141Z,31.67
2017-09-27T05:29:59.450Z,35.50
2017-09-27T05:32:26.975Z,34.83
2017-09-27T05:34:54.519Z,34.20
2017-09-27T05:37:22.043Z,38.67
2017-09-27T05:39:49.572Z,35.40
2017-09-27T05:42:17.890Z,29.37
2017-09-27T05:44:45.422Z,39.80
2017-09-27T05:47:13.735Z,36.97
2017-09-27T05:49:41.267Z,25.60
2017-09-27T05:52:08.810Z,28.23
2017-09-27T05:54:36.330Z,25.43
2017-09-27T05:57:03.875Z,31.33
2017-09-27T05:59:32.166Z,32.93
2017-09-27T06:01:59.711Z,23.90
2017-09-27T06:04:28.007Z,27.53
2017-09-27T06:06:55.559Z,23.73
2017-09-27T06:09:23.093Z,17.50
2017-09-27T06:11:50.650Z,18.97
2017-09-27T06:14:18.175Z,22.53
2017-09-27T06:16:45.725Z,22.57
2017-09-27T06:19:13.250Z,26.57
2017-09-27T06:21:40.795Z,20.57
2017-09-27T06:24:08.330Z,22.63
2017-09-27T06:26:36.645Z,26.10
2017-09-27T06:29:04.175Z,27.50
2017-09-27T06:31:32.482Z,31.50
2017-09-27T06:34:00.010Z,28.83
2017-09-27T06:36:28.328Z,24.70
2017-09-27T06:38:55.859Z,22.67
2017-09-27T06:41:23.404Z,25.73
2017-09-27T06:43:50.936Z,23.10
2017-09-27T06:46:18.480Z,23.37
2017-09-27T06:48:46.007Z,22.00
2017-09-27T06:51:13.563Z,23.47
2017-09-27T06:53:41.087Z,23.73
2017-09-27T06:56:08.648Z,24.87
2017-09-27T06:58:36.182Z,25.17
2017-09-27T07:01:03.723Z,22.63
2017-09-27T07:03:32.019Z,24.23
2017-09-27T07:06:00.332Z,24.20
2017-09-27T07:08:28.620Z,22.70
2017-09-27T07:10:56.935Z,21.37
2017-09-27T07:13:24.459Z,21.00
2017-09-27T07:15:52.019Z,19.90
2017-09-27T07:18:19.543Z,23.83
2017-09-27T07:20:47.855Z,23.10
2017-09-27T07:23:15.393Z,22.30
2017-09-27T07:25:42.939Z,23.40
2017-09-27T07:28:11.231Z,24.80
2017-09-27T07:30:40.292Z,25.17
2017-09-27T07:33:07.828Z,33.17
2017-09-27T07:35:35.389Z,23.90
2017-09-27T07:38:02.915Z,25.23
2017-09-27T07:40:30.468Z,24.50
2017-09-27T07:42:57.996Z,21.97
2017-09-27T07:45:25.519Z,25.20
2017-09-27T07:47:53.067Z,21.57
2017-09-27T07:50:21.358Z,23.10
2017-09-27T07:52:48.910Z,24.30
2017-09-27T07:55:16.439Z,25.53
2017-09-27T07:57:44.746Z,24.50
2017-09-27T08:00:12.271Z,26.30
2017-09-27T08:02:40.582Z,28.47
2017-09-27T08:05:08.882Z,24.63
2017-09-27T08:07:36.432Z,35.33
2017-09-27T08:10:04.727Z,27.27
2017-09-27T08:12:32.272Z,27.70
2017-09-27T08:14:59.804Z,25.57
2017-09-27T08:17:27.341Z,28.73
2017-09-27T08:19:54.865Z,23.20
2017-09-27T08:22:22.416Z,26.07
2017-09-27T08:24:50.703Z,24.30
2017-09-27T08:27:18.247Z,23.13
2017-09-27T08:29:45.775Z,29.03
2017-09-27T08:32:14.098Z,27.67
2017-09-27T08:34:41.631Z,21.00
2017-09-27T08:37:09.188Z,21.50
2017-09-27T08:39:36.719Z,20.17
2017-09-27T08:42:05.031Z,18.90
2017-09-27T08:44:32.560Z,17.40
2017-09-27T08:47:00.114Z,18.60
2017-09-27T08:49:27.645Z,17.07
2017-09-27T08:51:55.199Z,19.60
2017-09-27T08:54:23.496Z,16.90
2017-09-27T08:56:51.104Z,18.33
2017-09-27T08:59:18.632Z,19.13
2017-09-27T09:01:46.188Z,18.10
2017-09-27T09:04:13.719Z,18.90
2017-09-27T09:06:41.266Z,18.27
2017-09-27T09:09:08.795Z,17.47
2017-09-27T09:11:37.111Z,20.83
2017-09-27T09:14:04.637Z,17.30
2017-09-27T09:16:32.179Z,19.87
2017-09-27T09:18:59.766Z,20.23
2017-09-27T09:21:27.313Z,20.53
2017-09-27T09:23:54.842Z,20.00
2017-09-27T09:26:22.391Z,16.73
2017-09-27T09:28:49.918Z,25.73
2017-09-27T09:31:17.468Z,17.60
2017-09-27T09:33:44.996Z,17.43
2017-09-27T09:36:12.547Z,19.70
2017-09-27T09:38:40.835Z,18.20
2017-09-27T09:41:09.145Z,20.93
2017-09-27T09:43:36.670Z,17.60
2017-09-27T09:46:04.214Z,18.10
2017-09-27T09:48:32.519Z,19.43
2017-09-27T09:51:00.079Z,15.90
2017-09-27T09:53:28.374Z,17.63
2017-09-27T09:55:55.903Z,16.27
2017-09-27T09:58:23.454Z,16.93
2017-09-27T10:00:51.754Z,17.40
2017-09-27T10:03:19.308Z,17.43
2017-09-27T10:05:46.839Z,17.40
2017-09-27T10:08:14.388Z,16.77
2017-09-27T10:10:41.970Z,16.03
2017-09-27T10:13:09.516Z,15.07
2017-09-27T10:15:37.047Z,14.07
2017-09-27T10:18:04.599Z,17.37
2017-09-27T10:20:32.890Z,15.60
2017-09-27T10:23:00.436Z,16.13
2017-09-27T10:25:27.985Z,16.00
2017-09-27T10:27:55.534Z,17.07
2017-09-27T10:30:23.071Z,16.40
2017-09-27T10:32:50.625Z,17.27
2017-09-27T10:35:18.155Z,16.10
2017-09-27T10:37:45.700Z,17.13
2017-09-27T10:40:14.046Z,17.50
2017-09-27T10:42:41.588Z,20.50
2017-09-27T10:45:09.128Z,15.47
2017-09-27T10:47:37.451Z,17.60
2017-09-27T10:50:05.045Z,16.03
2017-09-27T10:52:32.591Z,16.60
2017-09-27T10:55:00.883Z,16.50
2017-09-27T10:57:28.667Z,15.73
2017-09-27T10:59:56.199Z,18.90
2017-09-27T11:02:23.757Z,15.97
2017-09-27T11:04:51.288Z,14.63
2017-09-27T11:07:18.844Z,14.43
2017-09-27T11:09:46.376Z,14.90
2017-09-27T11:12:13.927Z,13.87
2017-09-27T11:14:42.214Z,13.07
2017-09-27T11:17:09.758Z,14.80
2017-09-27T11:19:38.052Z,15.53
2017-09-27T11:22:06.364Z,16.90
2017-09-27T11:24:33.895Z,15.73
2017-09-27T11:27:01.454Z,16.07
2017-09-27T11:29:28.989Z,15.53
2017-09-27T11:31:56.539Z,15.03
2017-09-27T11:34:24.831Z,15.50
2017-09-27T11:36:52.385Z,18.47
2017-09-27T11:39:19.915Z,22.00
2017-09-27T11:41:47.467Z,16.20
2017-09-27T11:44:14.994Z,14.80
2017-09-27T11:46:42.547Z,14.87
2017-09-27T11:49:10.843Z,16.87
2017-09-27T11:51:38.387Z,16.03
2017-09-27T11:54:05.911Z,15.20
2017-09-27T11:56:33.460Z,14.17
2017-09-27T11:59:01.003Z,15.80
2017-09-27T12:01:28.526Z,14.57
2017-09-27T12:03:56.068Z,14.70
2017-09-27T12:06:23.594Z,15.60
2017-09-27T12:08:51.147Z,17.03
2017-09-27T12:11:18.675Z,16.83
2017-09-27T12:13:46.998Z,14.50
2017-09-27T12:16:14.527Z,14.40
2017-09-27T12:18:42.076Z,14.00
2017-09-27T12:21:09.614Z,14.53
2017-09-27T12:23:37.162Z,14.13
2017-09-27T12:26:05.454Z,14.27
2017-09-27T12:28:33.003Z,13.90
2017-09-27T12:31:00.528Z,14.57
2017-09-27T12:33:28.075Z,14.87
2017-09-27T12:35:55.607Z,14.93
2017-09-27T12:38:23.149Z,21.10
2017-09-27T12:40:50.679Z,14.30
2017-09-27T12:43:18.234Z,15.93
2017-09-27T12:45:45.761Z,14.73
2017-09-27T12:48:13.315Z,16.33
2017-09-27T12:50:41.608Z,15.93
2017-09-27T12:53:09.171Z,15.03
2017-09-27T12:55:37.472Z,18.10
2017-09-27T12:58:05.023Z,13.83
2017-09-27T13:00:32.547Z,14.30
2017-09-27T13:03:00.100Z,14.80
2017-09-27T13:05:27.628Z,14.67
2017-09-27T13:07:55.955Z,12.83
2017-09-27T13:10:23.498Z,15.30
2017-09-27T13:12:51.054Z,12.90
2017-09-27T13:15:19.352Z,14.33
2017-09-27T13:17:46.902Z,16.80
2017-09-27T13:20:14.427Z,13.10
2017-09-27T13:22:41.980Z,13.50
2017-09-27T13:25:09.515Z,14.13
2017-09-27T13:27:37.070Z,13.70
2017-09-27T13:30:04.599Z,14.50
2017-09-27T13:32:32.148Z,14.63
2017-09-27T13:35:00.471Z,14.93
2017-09-27T13:37:28.019Z,15.20
2017-09-27T13:39:55.546Z,14.50
2017-09-27T13:42:23.094Z,13.27
2017-09-27T13:44:50.619Z,14.73
2017-09-27T13:47:18.163Z,14.13
2017-09-27T13:49:45.696Z,14.67
2017-09-27T13:52:13.251Z,13.80
2017-09-27T13:54:40.792Z,14.00
2017-09-27T13:57:08.342Z,14.27
2017-09-27T13:59:36.635Z,15.60
2017-09-27T14:02:04.878Z,16.83
2017-09-27T14:04:33.166Z,16.00
2017-09-27T14:07:00.690Z,14.67
2017-09-27T14:09:28.231Z,13.90
2017-09-27T14:11:55.758Z,18.40
2017-09-27T14:14:23.309Z,16.43
2017-09-27T14:16:51.599Z,13.47
2017-09-27T14:19:19.144Z,14.30
2017-09-27T14:21:46.674Z,13.37
2017-09-27T14:24:14.214Z,13.73
2017-09-27T14:26:42.504Z,13.80
2017-09-27T14:29:10.818Z,11.87
2017-09-27T14:31:38.352Z,12.23
2017-09-27T14:34:05.896Z,14.83
2017-09-27T14:36:33.422Z,14.53
2017-09-27T14:39:01.742Z,14.90
2017-09-27T14:41:29.278Z,13.00
2017-09-27T14:43:56.837Z,11.10
2017-09-27T14:46:25.127Z,13.80
2017-09-27T14:48:52.667Z,12.77
2017-09-27T14:51:21.016Z,11.17
2017-09-27T14:53:48.578Z,13.63
2017-09-27T14:56:16.110Z,11.50
2017-09-27T14:58:43.665Z,12.93
2017-09-27T15:01:11.196Z,15.43
2017-09-27T15:03:39.506Z,13.17
2017-09-27T15:06:07.038Z,12.50
2017-09-27T15:08:34.584Z,16.10
2017-09-27T15:11:02.121Z,11.53
2017-09-27T15:13:30.435Z,11.87
2017-09-27T15:15:57.971Z,12.80
2017-09-27T15:18:25.524Z,11.10
2017-09-27T15:20:53.047Z,10.70
2017-09-27T15:23:20.596Z,11.00
2017-09-27T15:25:48.122Z,12.60
2017-09-27T15:28:15.664Z,10.80
2017-09-27T15:30:43.205Z,10.40
2017-09-27T15:33:10.755Z,12.10
2017-09-27T15:35:38.279Z,10.03
2017-09-27T15:38:05.835Z,10.33
2017-09-27T15:40:33.368Z,11.63
2017-09-27T15:43:00.917Z,10.33
2017-09-27T15:45:28.449Z,11.10
2017-09-27T15:47:56.779Z,11.97
2017-09-27T15:50:24.314Z,9.93
2017-09-27T15:52:51.859Z,11.60
2017-09-27T15:55:19.382Z,10.73
2017-09-27T15:57:46.931Z,12.90
2017-09-27T16:00:14.458Z,10.00
2017-09-27T16:02:42.783Z,15.37
2017-09-27T16:05:10.307Z,10.53
2017-09-27T16:07:37.859Z,10.93
2017-09-27T16:10:05.393Z,9.23
2017-09-27T16:12:32.938Z,9.40
2017-09-27T16:15:00.502Z,15.20
2017-09-27T16:17:28.031Z,8.73
2017-09-27T16:19:56.332Z,9.67
2017-09-27T16:22:23.860Z,9.23
2017-09-27T16:24:52.161Z,8.87
2017-09-27T16:27:19.679Z,9.70
2017-09-27T16:29:47.217Z,8.77
2017-09-27T16:32:14.735Z,9.40
2017-09-27T16:34:42.283Z,11.60
2017-09-27T16:37:10.587Z,10.27
2017-09-27T16:39:38.125Z,10.00
2017-09-27T16:42:06.419Z,13.50
2017-09-27T16:44:34.727Z,13.63
2017-09-27T16:47:02.269Z,12.03
2017-09-27T16:49:29.813Z,9.97
2017-09-27T16:51:57.343Z,10.70
2017-09-27T16:54:24.921Z,10.93
2017-09-27T16:56:52.440Z,9.90
2017-09-27T16:59:19.982Z,8.93
2017-09-27T17:01:47.510Z,8.53
2017-09-27T17:04:15.055Z,10.30
2017-09-27T17:06:42.577Z,8.00
2017-09-27T17:09:10.883Z,9.80
2017-09-27T17:11:39.178Z,10.03
2017-09-27T17:14:06.727Z,8.80
2017-09-27T17:16:34.256Z,9.60
2017-09-27T17:19:01.814Z,10.33
2017-09-27T17:21:29.339Z,11.50
2017-09-27T17:23:56.874Z,9.87
2017-09-27T17:26:24.395Z,9.80
2017-09-27T17:28:51.931Z,9.77
2017-09-27T17:31:19.464Z,12.80
2017-09-27T17:33:47.010Z,10.77
2017-09-27T17:36:14.536Z,8.30
2017-09-27T17:38:42.083Z,8.83
2017-09-27T17:41:10.369Z,9.73
2017-09-27T17:43:38.681Z,10.70
2017-09-27T17:46:06.210Z,9.50
2017-09-27T17:48:33.747Z,9.33
2017-09-27T17:51:02.034Z,9.43
2017-09-27T17:53:29.571Z,9.80
2017-09-27T17:55:57.103Z,13.03
2017-09-27T17:58:24.649Z,10.27
2017-09-27T18:00:52.942Z,10.60
2017-09-27T18:03:20.505Z,11.97
2017-09-27T18:05:53.684Z,10.77
2017-09-27T18:08:27.027Z,12.77
2017-09-27T18:11:00.169Z,10.70
2017-09-27T18:16:32.906Z,10.93
2017-09-27T18:19:00.459Z,10.77
2017-09-27T18:21:27.986Z,8.93
2017-09-27T18:23:56.297Z,8.07
2017-09-27T18:26:23.818Z,10.13
2017-09-27T18:28:51.354Z,9.17
2017-09-27T18:31:18.876Z,8.97
2017-09-27T18:33:46.428Z,10.87
2017-09-27T18:36:13.957Z,8.00
2017-09-27T18:38:41.551Z,9.87
2017-09-27T18:41:09.076Z,15.50
2017-09-27T18:43:36.623Z,12.33
2017-09-27T18:46:04.147Z,14.30
2017-09-27T18:48:32.454Z,11.90
2017-09-27T18:50:59.980Z,11.00
2017-09-27T18:53:27.523Z,16.03
2017-09-27T18:55:55.047Z,10.33
2017-09-27T18:58:23.380Z,10.07
2017-09-27T19:00:50.906Z,10.23
2017-09-27T19:03:19.190Z,8.50
2017-09-27T19:05:46.732Z,9.47
2017-09-27T19:08:15.025Z,7.67
2017-09-27T19:10:42.567Z,8.90
2017-09-27T19:13:10.092Z,8.77
2017-09-27T19:15:37.631Z,8.73
2017-09-27T19:18:05.164Z,8.73
2017-09-27T19:20:32.713Z,8.57
2017-09-27T19:23:00.230Z,8.87
2017-09-27T19:25:28.535Z,10.30
2017-09-27T19:27:56.061Z,8.63
2017-09-27T19:30:24.375Z,9.90
2017-09-27T19:32:51.894Z,7.83
2017-09-27T19:35:20.208Z,8.40
2017-09-27T19:37:47.735Z,8.00
2017-09-27T19:40:15.280Z,7.80
2017-09-27T19:42:43.579Z,7.97
2017-09-27T19:45:11.119Z,8.63
2017-09-27T19:47:38.648Z,7.73
2017-09-27T19:50:06.198Z,10.83
2017-09-27T19:52:33.723Z,10.10
2017-09-27T19:55:01.267Z,10.57
2017-09-27T19:57:28.791Z,10.00
2017-09-27T19:59:57.106Z,10.83
2017-09-27T20:02:24.642Z,12.10
2017-09-27T20:04:52.187Z,10.57
2017-09-27T20:07:19.711Z,12.37
2017-09-27T20:09:47.256Z,10.30
2017-09-27T20:12:14.783Z,10.90
2017-09-27T20:14:42.343Z,14.70
2017-09-27T20:17:09.867Z,9.77
2017-09-27T20:19:37.430Z,11.33
2017-09-27T20:22:04.966Z,8.60
2017-09-27T20:24:32.495Z,8.23
2017-09-27T20:27:00.044Z,8.93
2017-09-27T20:29:28.326Z,8.23
2017-09-27T20:31:55.871Z,6.70
2017-09-27T20:34:23.434Z,7.03
2017-09-27T20:36:50.970Z,7.63
2017-09-27T20:39:19.259Z,8.27
2017-09-27T20:41:46.806Z,9.37
2017-09-27T20:44:14.330Z,9.83
2017-09-27T20:46:42.635Z,9.37
2017-09-27T20:49:10.155Z,9.60
2017-09-27T20:51:37.703Z,8.60
2017-09-27T20:54:05.228Z,8.93
2017-09-27T20:56:33.514Z,11.70
2017-09-27T20:59:01.060Z,9.20
2017-09-27T21:01:29.351Z,7.50
2017-09-27T21:03:56.896Z,8.47
2017-09-27T21:06:24.415Z,8.00
2017-09-27T21:08:51.954Z,7.73
2017-09-27T21:11:20.243Z,12.03
2017-09-27T21:13:47.786Z,8.30
2017-09-27T21:16:15.302Z,7.03
2017-09-27T21:18:42.851Z,8.50
2017-09-27T21:21:10.375Z,8.67
2017-09-27T21:23:37.931Z,9.03
2017-09-27T21:26:05.456Z,7.90
2017-09-27T21:28:34.720Z,8.83
2017-09-27T21:31:03.035Z,9.27
2017-09-27T21:33:30.550Z,6.10
2017-09-27T21:35:58.859Z,8.27
2017-09-27T21:38:26.391Z,6.90
2017-09-27T21:40:54.724Z,8.70
2017-09-27T21:43:22.247Z,12.60
2017-09-27T21:45:49.790Z,10.47
2017-09-27T21:48:17.320Z,10.90
2017-09-27T21:50:45.631Z,10.17
2017-09-27T21:53:13.159Z,10.13
2017-09-27T21:55:41.477Z,11.13
2017-09-27T21:58:09.001Z,9.60
2017-09-27T22:00:37.307Z,9.60
2017-09-27T22:03:04.871Z,8.20
2017-09-27T22:05:32.387Z,6.70
2017-09-27T22:07:59.932Z,7.03
2017-09-27T22:10:27.451Z,8.33
2017-09-27T22:12:55.765Z,8.43
2017-09-27T22:15:23.290Z,8.43
2017-09-27T22:17:50.843Z,7.60
2017-09-27T22:20:18.379Z,6.50
2017-09-27T22:22:45.910Z,7.60
2017-09-27T22:25:13.452Z,7.27
2017-09-27T22:27:40.979Z,9.00
2017-09-27T22:30:08.530Z,7.37
2017-09-27T22:32:36.053Z,6.83
2017-09-27T22:35:03.604Z,6.90
2017-09-27T22:37:31.127Z,6.80
2017-09-27T22:39:58.735Z,6.70
2017-09-27T22:42:26.259Z,6.03
2017-09-27T22:44:53.792Z,5.50
2017-09-27T22:47:21.340Z,5.50
2017-09-27T22:49:48.877Z,6.00
2017-09-27T22:52:17.183Z,5.73
2017-09-27T22:54:44.703Z,5.80
2017-09-27T22:57:13.006Z,4.70
2017-09-27T22:59:40.527Z,5.23
2017-09-27T23:02:08.064Z,4.17
2017-09-27T23:04:35.583Z,5.23
2017-09-27T23:07:03.123Z,5.30
2017-09-27T23:09:30.657Z,5.37
2017-09-27T23:11:58.206Z,6.07
2017-09-27T23:14:25.734Z,4.80
2017-09-27T23:16:53.264Z,4.83
2017-09-27T23:19:20.803Z,4.63
2017-09-27T23:21:48.328Z,4.83
2017-09-27T23:24:15.884Z,4.63
2017-09-27T23:26:43.404Z,5.80
2017-09-27T23:29:10.943Z,7.30
2017-09-27T23:31:38.473Z,5.43
2017-09-27T23:34:06.021Z,5.10
2017-09-27T23:36:33.539Z,5.50
2017-09-27T23:39:01.640Z,5.27
2017-09-27T23:41:29.160Z,5.77
2017-09-27T23:43:56.686Z,6.17
2017-09-27T23:46:24.236Z,6.53
2017-09-27T23:48:51.762Z,5.47
2017-09-27T23:51:19.311Z,8.67
2017-09-27T23:53:46.829Z,7.03
2017-09-27T23:56:14.370Z,7.87
2017-09-27T23:58:41.886Z,10.50
